Hovedside
METAR-TAF:

METAR-TAF

Lufthavner :

Szczecin-Goleniów «Solidarność» lufthavn

Szczecin, Polen

breddegrad: 53-35N, lengdegrad: 014-54E, høyde over havet: 1 m

Gjeldene værobservasjon

Denne rapporten ble laget for 16 minutter siden, klokken 11:30 UTC
Vind 9 kt fra Vest-nordvest, skiftende mellom Vest og Nord-nordvest
Temperatur 18°C
Luftfuktighet 73%
Trykk 1015 hPa
Sikt 10 km eller mer
Få skyer i en høyde av 1500 ft

METAR: EPSC 191130Z 30009KT 270V330 9999 FEW015 18/13 Q1015

Tid: 13:46 (11:46 UTC)

Varsel

Denne rapporten ble laget for 16 minutter siden, klokken 11:30 UTC
Varsel gyldig fra 19. klokken 12 UTC til 20. klokken 12 UTC
Vind 8 kt fra Vest-nordvest
Sikt 10 km eller mer
Brutte skyer i en høyde av 3000 ft
Sannsynlighet 40% :
Midlertidig
fra 19. klokken 12 UTC til 19. klokken 16 UTC
Spredte skyer i en høyde av 2500 ft, Tårnskyer (cumulus).
lette regnbyger,

TAF: EPSC 191130Z 1912/2012 29008KT 9999 BKN030 PROB40 TEMPO 1912/1916 -SHRA SCT025TCU

Værobservasjoner og værvarsel for over 4000 flyplasser (METAR- og TAF-rapporter).

Tilgjengelige stasjoner er representert av de røde og gule prikkene på kartet.

Hold musepekeren over prikken for å se navnet på stasjonen.

Klikk så for å se værobservasjoner og -varsler.

For å forandre kartet kan du klikke på den grønne knappen med svart kryss for å zoome inn, på den grønne knappen med strek for å zoome ut, eller på de grønne pilene for å se tilstøtende kart.


METAR-TAF: